createdAt,value
2022-11-28T00:00:31.409Z,21
2022-11-28T00:01:33.084Z,21.1
2022-11-28T00:02:35.048Z,21.1
2022-11-28T00:03:37.519Z,21.1
2022-11-28T00:04:40.818Z,21.1
2022-11-28T00:05:47.456Z,21.1
2022-11-28T00:06:49.822Z,21
2022-11-28T00:07:52.104Z,21
2022-11-28T00:08:54.368Z,21
2022-11-28T00:09:56.162Z,21
2022-11-28T00:10:57.895Z,21
2022-11-28T00:11:59.558Z,21
2022-11-28T00:13:01.298Z,21.1
2022-11-28T00:14:02.964Z,21.1
2022-11-28T00:15:04.623Z,21.1
2022-11-28T00:16:06.746Z,21.1
2022-11-28T00:17:08.786Z,21.1
2022-11-28T00:18:10.540Z,21.1
2022-11-28T00:19:12.429Z,21.1
2022-11-28T00:20:14.301Z,21.1
2022-11-28T00:21:15.973Z,21.1
2022-11-28T00:22:17.958Z,21.1
2022-11-28T00:23:19.757Z,21.1
2022-11-28T00:24:21.623Z,21.1
2022-11-28T00:25:23.409Z,21.1
2022-11-28T00:26:25.095Z,21.1
2022-11-28T00:27:26.766Z,21.1
2022-11-28T00:28:28.427Z,21.1
2022-11-28T00:29:30.174Z,21.1
2022-11-28T00:30:31.847Z,21.1
2022-11-28T00:31:33.755Z,21.1
2022-11-28T00:32:35.819Z,21.1
2022-11-28T00:33:37.481Z,21.1
2022-11-28T00:34:39.907Z,21.1
2022-11-28T00:35:42.885Z,21.1
2022-11-28T00:36:44.565Z,21.1
2022-11-28T00:37:51.943Z,21.1
2022-11-28T00:38:54.032Z,21.1
2022-11-28T00:39:55.857Z,21.1
2022-11-28T00:40:57.600Z,21.1
2022-11-28T00:41:59.279Z,21.1
2022-11-28T00:43:01.179Z,21.1
2022-11-28T00:44:02.862Z,21.1
2022-11-28T00:45:04.533Z,21.1
2022-11-28T00:46:06.405Z,21.1
2022-11-28T00:47:08.394Z,21.1
2022-11-28T00:48:09.978Z,21.1
2022-11-28T00:49:11.591Z,21.1
2022-11-28T00:50:13.193Z,21.1
2022-11-28T00:51:14.797Z,21.1
2022-11-28T00:52:16.444Z,21.1
2022-11-28T00:53:18.323Z,21.1
2022-11-28T00:54:20.226Z,21.1
2022-11-28T00:55:21.938Z,21.1
2022-11-28T00:56:23.722Z,21.1
2022-11-28T00:57:25.467Z,21.1
2022-11-28T00:58:27.048Z,21.1
2022-11-28T00:59:28.712Z,21.1
2022-11-28T01:00:30.290Z,21.1
2022-11-28T01:01:32.183Z,21.1
2022-11-28T01:02:34.230Z,21.1
2022-11-28T01:03:36.225Z,21.1
2022-11-28T01:04:37.818Z,21.1
2022-11-28T01:05:39.451Z,21.1
2022-11-28T01:06:41.087Z,21.1
2022-11-28T01:07:42.971Z,21.1
2022-11-28T01:08:44.961Z,21.1
2022-11-28T01:09:46.855Z,21.1
2022-11-28T01:10:48.574Z,21.1
2022-11-28T01:11:50.312Z,21.1
2022-11-28T01:12:51.937Z,21.1
2022-11-28T01:13:53.535Z,21.1
2022-11-28T01:14:55.282Z,21.1
2022-11-28T01:15:57.143Z,21.1
2022-11-28T01:16:58.923Z,21.1
2022-11-28T01:18:00.522Z,21.1
2022-11-28T01:19:02.133Z,21.2
2022-11-28T01:20:03.880Z,21.1
2022-11-28T01:21:05.478Z,21.1
2022-11-28T01:22:07.081Z,21.1
2022-11-28T01:23:08.742Z,21.1
2022-11-28T01:24:10.483Z,21.1
2022-11-28T01:25:12.458Z,21.1
2022-11-28T01:26:14.217Z,21.1
2022-11-28T01:27:15.847Z,21.1
2022-11-28T01:28:17.475Z,21.1
2022-11-28T01:29:19.091Z,21.1
2022-11-28T01:30:20.718Z,21.1
2022-11-28T01:31:22.544Z,21.1
2022-11-28T01:32:24.382Z,21.1
2022-11-28T01:33:26.097Z,21.1
2022-11-28T01:34:27.693Z,21.1
2022-11-28T01:35:29.311Z,21.1
2022-11-28T01:36:30.986Z,21.1
2022-11-28T01:37:32.584Z,21.1
2022-11-28T01:38:34.212Z,21.1
2022-11-28T01:39:36.000Z,21.2
2022-11-28T01:40:37.938Z,21.2
2022-11-28T01:41:39.738Z,21.1
2022-11-28T01:42:41.365Z,21.1
2022-11-28T01:43:42.963Z,21.1
2022-11-28T01:44:44.727Z,21.1
2022-11-28T01:45:46.321Z,21.2
2022-11-28T01:46:48.187Z,21.2
2022-11-28T01:47:50.139Z,21.1
2022-11-28T01:48:51.790Z,21.1
2022-11-28T01:49:53.446Z,21.1
2022-11-28T01:50:55.178Z,21.1
2022-11-28T01:51:56.813Z,21.1
2022-11-28T01:52:58.407Z,21.2
2022-11-28T01:54:00.011Z,21.2
2022-11-28T01:55:07.694Z,21.2
2022-11-28T01:56:09.906Z,21.2
2022-11-28T01:57:11.634Z,21.2
2022-11-28T01:58:13.392Z,21.2
2022-11-28T01:59:14.991Z,21.2
2022-11-28T02:00:16.646Z,21.2
2022-11-28T02:01:18.611Z,21.2
2022-11-28T02:02:20.851Z,21.2
2022-11-28T02:03:22.813Z,21.2
2022-11-28T02:04:24.492Z,21.2
2022-11-28T02:05:26.091Z,21.2
2022-11-28T02:06:27.738Z,21.2
2022-11-28T02:07:29.565Z,21.2
2022-11-28T02:08:31.641Z,21.2
2022-11-28T02:09:33.286Z,21.2
2022-11-28T02:10:34.935Z,21.2
2022-11-28T02:11:37.039Z,21.2
2022-11-28T02:12:38.739Z,21.2
2022-11-28T02:13:40.442Z,21.2
2022-11-28T02:14:42.628Z,21.2
2022-11-28T02:15:45.385Z,21.2
2022-11-28T02:16:47.256Z,21.2
2022-11-28T02:17:49.013Z,21.2
2022-11-28T02:18:51.107Z,21.2
2022-11-28T02:19:52.712Z,21.2
2022-11-28T02:20:54.358Z,21.2
2022-11-28T02:21:56.027Z,21.2
2022-11-28T02:22:57.611Z,21.2
2022-11-28T02:23:59.223Z,21.2
2022-11-28T02:25:00.877Z,21.2
2022-11-28T02:26:02.542Z,21.2
2022-11-28T02:27:04.580Z,21.2
2022-11-28T02:28:06.281Z,21.2
2022-11-28T02:29:07.981Z,21.2
2022-11-28T02:30:09.616Z,21.2
2022-11-28T02:31:11.405Z,21.3
2022-11-28T02:32:13.250Z,21.2
2022-11-28T02:33:14.855Z,21.3
2022-11-28T02:34:16.486Z,21.2
2022-11-28T02:35:18.157Z,21.2
2022-11-28T02:36:22.581Z,21.2
2022-11-28T02:37:24.306Z,21.2
2022-11-28T02:38:26.114Z,21.2
2022-11-28T02:39:27.705Z,21.2
2022-11-28T02:40:29.344Z,21.2
2022-11-28T02:41:30.928Z,21.2
2022-11-28T02:42:33.043Z,21.2
2022-11-28T02:43:34.817Z,21.2
2022-11-28T02:44:36.448Z,21.2
2022-11-28T02:45:38.064Z,21.3
2022-11-28T02:46:39.883Z,21.2
2022-11-28T02:47:41.936Z,21.3
2022-11-28T02:48:43.514Z,21.3
2022-11-28T02:49:45.176Z,21.2
2022-11-28T02:50:46.786Z,21.2
2022-11-28T02:51:48.399Z,21.2
2022-11-28T02:52:49.999Z,21.2
2022-11-28T02:53:51.639Z,21.2
2022-11-28T02:54:53.236Z,21.2
2022-11-28T02:55:54.830Z,21.2
2022-11-28T02:56:56.433Z,21.2
2022-11-28T02:57:58.531Z,21.2
2022-11-28T02:59:00.280Z,21.2
2022-11-28T03:00:01.966Z,21.2
2022-11-28T03:01:03.815Z,21.2
2022-11-28T03:02:05.881Z,21.2
2022-11-28T03:03:07.892Z,21.2
2022-11-28T03:04:09.599Z,21.2
2022-11-28T03:05:11.265Z,21.2
2022-11-28T03:06:12.856Z,21.2
2022-11-28T03:07:14.535Z,21.3
2022-11-28T03:08:16.575Z,21.2
2022-11-28T03:09:18.202Z,21.2
2022-11-28T03:10:19.817Z,21.3
2022-11-28T03:11:21.435Z,21.3
2022-11-28T03:12:23.048Z,21.2
2022-11-28T03:13:25.264Z,21.3
2022-11-28T03:14:26.967Z,21.3
2022-11-28T03:15:28.752Z,21.3
2022-11-28T03:16:30.557Z,21.3
2022-11-28T03:17:32.622Z,21.3
2022-11-28T03:18:34.231Z,21.3
2022-11-28T03:19:35.838Z,21.3
2022-11-28T03:20:37.460Z,21.3
2022-11-28T03:21:39.081Z,21.3
2022-11-28T03:22:40.752Z,21.3
2022-11-28T03:23:42.363Z,21.3
2022-11-28T03:24:44.475Z,21.3
2022-11-28T03:25:46.469Z,21.3
2022-11-28T03:26:48.076Z,21.3
2022-11-28T03:27:49.725Z,21.3
2022-11-28T03:28:51.798Z,21.3
2022-11-28T03:29:53.514Z,21.3
2022-11-28T03:30:55.230Z,21.3
2022-11-28T03:31:57.090Z,21.3
2022-11-28T03:32:59.032Z,21.3
2022-11-28T03:34:00.637Z,21.3
2022-11-28T03:35:02.243Z,21.3
2022-11-28T03:36:03.902Z,21.3
2022-11-28T03:37:05.497Z,21.3
2022-11-28T03:38:07.096Z,21.3
2022-11-28T03:39:08.728Z,21.3
2022-11-28T03:40:10.317Z,21.3
2022-11-28T03:41:11.976Z,21.3
2022-11-28T03:42:13.683Z,21.3
2022-11-28T03:43:15.487Z,21.4
2022-11-28T03:44:17.701Z,21.4
2022-11-28T03:45:19.423Z,21.4
2022-11-28T03:46:21.314Z,21.4
2022-11-28T03:47:23.309Z,21.4
2022-11-28T03:48:24.914Z,21.4
2022-11-28T03:49:26.525Z,21.4
2022-11-28T03:50:28.133Z,21.4
2022-11-28T03:51:29.733Z,21.4
2022-11-28T03:52:31.467Z,21.4
2022-11-28T03:53:33.105Z,21.4
2022-11-28T03:54:34.998Z,21.4
2022-11-28T03:55:36.830Z,21.4
2022-11-28T03:56:38.545Z,21.4
2022-11-28T03:57:40.132Z,21.5
2022-11-28T03:58:41.819Z,21.5
2022-11-28T03:59:43.920Z,21.3
2022-11-28T04:00:45.717Z,21.3
2022-11-28T04:01:47.509Z,21.4
2022-11-28T04:02:49.420Z,21.5
2022-11-28T04:03:51.381Z,21.5
2022-11-28T04:04:53.025Z,21.5
2022-11-28T04:05:54.619Z,21.6
2022-11-28T04:06:56.288Z,21.6
2022-11-28T04:07:58.032Z,21.7
2022-11-28T04:09:00.230Z,21.7
2022-11-28T04:10:01.831Z,21.7
2022-11-28T04:11:03.471Z,21.7
2022-11-28T04:12:05.087Z,21.7
2022-11-28T04:13:06.698Z,21.7
2022-11-28T04:14:08.274Z,21.6
2022-11-28T04:15:10.436Z,21.6
2022-11-28T04:16:12.349Z,21.6
2022-11-28T04:17:14.154Z,21.6
2022-11-28T04:18:15.975Z,21.6
2022-11-28T04:19:17.694Z,21.6
2022-11-28T04:20:19.338Z,21.6
2022-11-28T04:21:20.935Z,21.6
2022-11-28T04:22:22.587Z,21.6
2022-11-28T04:23:24.289Z,21.6
2022-11-28T04:24:26.155Z,21.6
2022-11-28T04:25:27.894Z,21.6
2022-11-28T04:26:29.662Z,21.6
2022-11-28T04:27:31.368Z,21.6
2022-11-28T04:28:32.952Z,21.6
2022-11-28T04:29:34.546Z,21.6
2022-11-28T04:30:36.641Z,21.6
2022-11-28T04:31:38.636Z,21.6
2022-11-28T04:32:40.747Z,21.6
2022-11-28T04:33:42.569Z,21.6
2022-11-28T04:34:44.896Z,21.6
2022-11-28T04:35:47.540Z,21.6
2022-11-28T04:36:49.231Z,21.7
2022-11-28T04:37:50.907Z,21.6
2022-11-28T04:38:52.540Z,21.7
2022-11-28T04:39:54.145Z,21.7
2022-11-28T04:40:55.769Z,21.7
2022-11-28T04:42:00.344Z,21.7
2022-11-28T04:43:02.024Z,21.7
2022-11-28T04:44:06.276Z,21.8
2022-11-28T04:45:07.860Z,21.8
2022-11-28T04:46:10.174Z,21.9
2022-11-28T04:47:12.381Z,21.9
2022-11-28T04:48:14.114Z,21.9
2022-11-28T04:49:15.798Z,21.9
2022-11-28T04:50:17.394Z,22
2022-11-28T04:51:19.006Z,22
2022-11-28T04:52:20.666Z,22.1
2022-11-28T04:53:22.299Z,22.2
2022-11-28T04:54:23.916Z,22.2
2022-11-28T04:55:25.512Z,22.2
2022-11-28T04:56:27.158Z,22.2
2022-11-28T04:57:28.759Z,22.2
2022-11-28T04:58:30.357Z,22.2
2022-11-28T04:59:32.010Z,22.2
2022-11-28T05:00:33.674Z,22.2
2022-11-28T05:01:35.826Z,22.2
2022-11-28T05:02:37.715Z,22.4
2022-11-28T05:03:43.092Z,22.3
2022-11-28T05:04:45.280Z,22.3
2022-11-28T05:05:47.322Z,22.3
2022-11-28T05:06:49.142Z,22.3
2022-11-28T05:07:50.960Z,22.4
2022-11-28T05:08:52.874Z,22.3
2022-11-28T05:09:54.467Z,22.4
2022-11-28T05:10:56.106Z,22.4
2022-11-28T05:11:57.712Z,22.5
2022-11-28T05:12:59.395Z,22.4
2022-11-28T05:14:00.999Z,22.5
2022-11-28T05:15:02.605Z,22.6
2022-11-28T05:16:04.432Z,22.8
2022-11-28T05:17:06.856Z,22.9
2022-11-28T05:18:08.815Z,22.9
2022-11-28T05:19:10.463Z,22.8
2022-11-28T05:20:12.082Z,22.9
2022-11-28T05:21:13.731Z,22.8
2022-11-28T05:22:15.434Z,22.8
2022-11-28T05:23:17.047Z,22.8
2022-11-28T05:24:18.657Z,22.8
2022-11-28T05:25:20.270Z,22.8
2022-11-28T05:26:21.938Z,22.8
2022-11-28T05:27:23.596Z,22.8
2022-11-28T05:28:25.206Z,22.7
2022-11-28T05:29:26.853Z,22.7
2022-11-28T05:30:28.496Z,22.7
2022-11-28T05:31:30.342Z,22.5
2022-11-28T05:32:32.664Z,22.5
2022-11-28T05:33:34.510Z,22.5
2022-11-28T05:34:36.197Z,22.4
2022-11-28T05:35:37.806Z,22.4
2022-11-28T05:36:39.452Z,22.5
2022-11-28T05:37:41.092Z,22.3
2022-11-28T05:38:42.739Z,22.2
2022-11-28T05:39:45.083Z,22.2
2022-11-28T05:40:47.296Z,22.1
2022-11-28T05:41:48.902Z,22
2022-11-28T05:42:50.625Z,22
2022-11-28T05:43:52.187Z,22.1
2022-11-28T05:44:53.835Z,22
2022-11-28T05:45:55.849Z,22
2022-11-28T05:46:57.827Z,21.9
2022-11-28T05:47:59.886Z,21.9
2022-11-28T05:49:02.754Z,21.9
2022-11-28T05:50:04.491Z,21.9
2022-11-28T05:51:06.093Z,21.8
2022-11-28T05:52:07.704Z,21.8
2022-11-28T05:53:09.292Z,21.8
2022-11-28T05:54:10.967Z,21.8
2022-11-28T05:55:12.576Z,21.9
2022-11-28T05:56:14.183Z,21.8
2022-11-28T05:57:15.777Z,21.8
2022-11-28T05:58:17.378Z,21.8
2022-11-28T05:59:18.979Z,21.7
2022-11-28T06:00:20.559Z,21.7
2022-11-28T06:01:22.193Z,21.7
2022-11-28T06:02:23.982Z,21.7
2022-11-28T06:03:26.407Z,21.7
2022-11-28T06:04:28.301Z,21.7
2022-11-28T06:05:43.789Z,21.7
2022-11-28T06:06:46.160Z,21.7
2022-11-28T06:07:48.001Z,21.7
2022-11-28T06:08:49.932Z,21.7
2022-11-28T06:09:51.607Z,21.7
2022-11-28T06:10:53.457Z,21.7
2022-11-28T06:11:55.058Z,21.6
2022-11-28T06:12:56.715Z,21.5
2022-11-28T06:13:58.406Z,21.5
2022-11-28T06:15:00.008Z,21.5
2022-11-28T06:16:01.946Z,21.5
2022-11-28T06:17:03.747Z,21.5
2022-11-28T06:18:05.339Z,21.5
2022-11-28T06:19:07.886Z,21.5
2022-11-28T06:20:10.532Z,21.5
2022-11-28T06:21:12.269Z,21.5
2022-11-28T06:22:13.876Z,21.4
2022-11-28T06:23:15.488Z,21.5
2022-11-28T06:24:17.074Z,21.4
2022-11-28T06:25:18.675Z,21.4
2022-11-28T06:26:20.350Z,21.4
2022-11-28T06:27:21.968Z,21.4
2022-11-28T06:28:23.664Z,21.3
2022-11-28T06:29:25.267Z,21.3
2022-11-28T06:30:26.835Z,21.4
2022-11-28T06:31:28.834Z,21.3
2022-11-28T06:32:30.645Z,21.3
2022-11-28T06:33:32.261Z,21.3
2022-11-28T06:34:34.506Z,21.3
2022-11-28T06:35:36.214Z,21.3
2022-11-28T06:36:37.890Z,21.3
2022-11-28T06:37:39.512Z,21.3
2022-11-28T06:38:41.164Z,21.2
2022-11-28T06:39:43.449Z,21.2
2022-11-28T06:40:45.993Z,21.2
2022-11-28T06:41:47.600Z,21.2
2022-11-28T06:42:49.267Z,21.2
2022-11-28T06:43:50.953Z,21.2
2022-11-28T06:44:52.749Z,21.1
2022-11-28T06:45:54.575Z,21.1
2022-11-28T06:46:56.589Z,21.1
2022-11-28T06:47:58.205Z,21.1
2022-11-28T06:48:59.796Z,21.1
2022-11-28T06:50:01.706Z,21.2
2022-11-28T06:51:03.401Z,21.2
2022-11-28T06:52:05.173Z,21.1
2022-11-28T06:53:06.786Z,21.1
2022-11-28T06:54:08.382Z,21.1
2022-11-28T06:55:10.137Z,21.1
2022-11-28T06:56:11.757Z,21.1
2022-11-28T06:57:13.437Z,21.1
2022-11-28T06:58:15.025Z,21.1
2022-11-28T06:59:16.649Z,21.3
2022-11-28T07:00:18.299Z,21.5
2022-11-28T07:01:20.115Z,21.3
2022-11-28T07:02:22.228Z,21.3
2022-11-28T07:03:24.092Z,21.2
2022-11-28T07:04:25.723Z,21.1
2022-11-28T07:05:27.731Z,21.1
2022-11-28T07:06:29.468Z,21
2022-11-28T07:07:31.436Z,21
2022-11-28T07:08:33.453Z,21
2022-11-28T07:09:35.134Z,21
2022-11-28T07:10:36.794Z,21.1
2022-11-28T07:11:38.573Z,21
2022-11-28T07:12:40.204Z,21.4
2022-11-28T07:13:41.871Z,21.1
2022-11-28T07:14:43.496Z,21.2
2022-11-28T07:15:45.129Z,21.1
2022-11-28T07:16:46.986Z,21.2
2022-11-28T07:17:49.139Z,21.1
2022-11-28T07:18:50.983Z,21.2
2022-11-28T07:19:55.588Z,21.2
2022-11-28T07:20:57.733Z,21.2
2022-11-28T07:21:59.718Z,21.2
2022-11-28T07:23:01.569Z,21.2
2022-11-28T07:24:03.311Z,21.3
2022-11-28T07:25:05.048Z,21.2
2022-11-28T07:26:07.296Z,21.3
2022-11-28T07:27:09.055Z,21.2
2022-11-28T07:28:10.808Z,21.1
2022-11-28T07:29:12.498Z,21.1
2022-11-28T07:30:14.204Z,20.9
2022-11-28T07:31:16.244Z,20.9
2022-11-28T07:32:18.315Z,20.8
2022-11-28T07:33:19.935Z,20.8
2022-11-28T07:34:21.594Z,20.8
2022-11-28T07:35:23.310Z,20.8
2022-11-28T07:36:25.403Z,21
2022-11-28T07:37:27.177Z,20.9
2022-11-28T07:38:29.094Z,20.9
2022-11-28T07:39:30.853Z,21
2022-11-28T07:40:32.598Z,20.9
2022-11-28T07:41:34.451Z,21
2022-11-28T07:42:36.284Z,21
2022-11-28T07:43:37.988Z,21
2022-11-28T07:44:39.781Z,20.9
2022-11-28T07:46:01.499Z,21
2022-11-28T07:47:04.005Z,20.9
2022-11-28T07:48:05.979Z,20.9
2022-11-28T07:49:07.581Z,20.9
2022-11-28T07:50:09.272Z,20.8
2022-11-28T07:51:10.876Z,20.8
2022-11-28T07:52:12.592Z,20.8
2022-11-28T07:53:14.275Z,20.8
2022-11-28T07:54:15.858Z,20.8
2022-11-28T07:55:17.445Z,20.9
2022-11-28T07:56:19.046Z,20.8
2022-11-28T07:57:20.700Z,20.8
2022-11-28T07:58:22.364Z,20.8
2022-11-28T07:59:23.995Z,20.7
2022-11-28T08:00:25.741Z,20.8
2022-11-28T08:01:27.880Z,20.8
2022-11-28T08:02:29.633Z,20.8
2022-11-28T08:03:31.636Z,20.8
2022-11-28T08:04:33.405Z,20.7
2022-11-28T08:05:35.527Z,21
2022-11-28T08:06:37.176Z,20.7
2022-11-28T08:07:39.243Z,20.6
2022-11-28T08:08:41.305Z,20.6
2022-11-28T08:09:43.391Z,20.6
2022-11-28T08:10:46.382Z,20.6
2022-11-28T08:11:48.153Z,20.6
2022-11-28T08:12:50.009Z,20.8
2022-11-28T08:13:56.515Z,20.7
2022-11-28T08:15:00.855Z,20.7
2022-11-28T08:16:02.435Z,20.6
2022-11-28T08:17:04.366Z,20.6
2022-11-28T08:18:06.378Z,20.6
2022-11-28T08:19:08.100Z,20.6
2022-11-28T08:20:09.825Z,20.5
2022-11-28T08:21:11.778Z,20.5
2022-11-28T08:22:13.570Z,20.7
2022-11-28T08:23:15.276Z,20.7
2022-11-28T08:24:17.011Z,20.8
2022-11-28T08:25:18.704Z,20.7
2022-11-28T08:26:20.607Z,20.7
2022-11-28T08:27:23.165Z,20.7
2022-11-28T08:28:25.000Z,20.5
2022-11-28T08:29:26.671Z,20.7
2022-11-28T08:30:28.794Z,20.7
2022-11-28T08:31:30.766Z,20.7
2022-11-28T08:32:32.513Z,20.6
2022-11-28T08:33:34.153Z,20.6
2022-11-28T08:34:35.788Z,20.5
2022-11-28T08:35:37.425Z,20.5
2022-11-28T08:36:39.076Z,20.5
2022-11-28T08:37:40.761Z,20.5
2022-11-28T08:39:03.211Z,20.5
2022-11-28T08:40:26.734Z,20.5
2022-11-28T08:41:28.328Z,20.4
2022-11-28T08:42:30.148Z,20.4
2022-11-28T08:43:31.809Z,20.4
2022-11-28T08:44:33.642Z,20.5
2022-11-28T08:45:35.477Z,20.5
2022-11-28T08:46:37.412Z,20.4
2022-11-28T08:47:39.181Z,20.4
2022-11-28T08:48:41.033Z,20.4
2022-11-28T08:49:43.336Z,20.7
2022-11-28T08:50:48.373Z,20.5
2022-11-28T08:51:50.132Z,20.5
2022-11-28T08:52:51.778Z,20.6
2022-11-28T08:54:00.019Z,20.6
2022-11-28T08:55:02.178Z,20.6
2022-11-28T08:56:03.941Z,20.6
2022-11-28T08:57:05.777Z,20.7
2022-11-28T08:58:07.617Z,20.6
2022-11-28T08:59:09.573Z,20.6
2022-11-28T09:00:11.281Z,20.6
2022-11-28T09:01:13.201Z,20.5
2022-11-28T09:02:15.220Z,20.5
2022-11-28T09:03:17.069Z,20.5
2022-11-28T09:04:19.019Z,20.5
2022-11-28T09:05:21.086Z,20.4
2022-11-28T09:06:22.816Z,20.4
2022-11-28T09:07:24.817Z,20.5
2022-11-28T09:08:26.832Z,20.4
2022-11-28T09:09:43.548Z,20.4
2022-11-28T09:10:46.317Z,20.5
2022-11-28T09:11:48.183Z,20.4
2022-11-28T09:12:50.003Z,20.5
2022-11-28T09:13:51.861Z,20.5
2022-11-28T09:14:53.586Z,20.5
2022-11-28T09:15:55.255Z,20.5
2022-11-28T09:16:57.033Z,20.5
2022-11-28T09:17:58.909Z,20.5
2022-11-28T09:19:00.901Z,20.5
2022-11-28T09:20:02.854Z,20.5
2022-11-28T09:21:04.708Z,20.4
2022-11-28T09:22:06.649Z,20.4
2022-11-28T09:23:08.533Z,20.4
2022-11-28T09:24:10.200Z,20.4
2022-11-28T09:25:12.004Z,20.4
2022-11-28T09:26:13.742Z,20.3
2022-11-28T09:27:15.491Z,20.4
2022-11-28T09:28:17.244Z,20.4
2022-11-28T09:29:18.990Z,20.4
2022-11-28T09:30:20.747Z,20.4
2022-11-28T09:31:22.882Z,20.3
2022-11-28T09:32:25.031Z,20.3
2022-11-28T09:33:26.761Z,20.5
2022-11-28T09:34:28.326Z,20.6
2022-11-28T09:35:29.983Z,20.6
2022-11-28T09:36:31.834Z,20.5
2022-11-28T09:37:33.586Z,20.5
2022-11-28T09:38:35.156Z,20.6
2022-11-28T09:40:12.961Z,20.3
2022-11-28T09:41:15.819Z,20.4
2022-11-28T09:42:17.644Z,20.3
2022-11-28T09:43:19.538Z,20.3
2022-11-28T09:44:21.455Z,20.3
2022-11-28T09:45:23.297Z,20.2
2022-11-28T09:46:25.334Z,20.2
2022-11-28T09:47:27.408Z,20.3
2022-11-28T09:48:29.258Z,20.2
2022-11-28T09:49:40.221Z,20.2
2022-11-28T09:50:43.315Z,20.2
2022-11-28T09:51:45.130Z,20.1
2022-11-28T09:52:47.125Z,20.3
2022-11-28T09:53:49.025Z,20.1
2022-11-28T09:54:50.796Z,20.1
2022-11-28T09:55:52.410Z,20.3
2022-11-28T09:56:55.089Z,20.1
2022-11-28T09:57:56.773Z,20
2022-11-28T09:58:58.690Z,20
2022-11-28T10:00:00.689Z,20
2022-11-28T10:01:02.486Z,20
2022-11-28T10:02:04.266Z,20.1
2022-11-28T10:03:06.265Z,20
2022-11-28T10:04:08.609Z,20
2022-11-28T10:05:11.131Z,20.2
2022-11-28T10:06:16.016Z,20.2
2022-11-28T10:07:18.517Z,20.1
2022-11-28T10:08:20.562Z,20
2022-11-28T10:09:22.343Z,19.9
2022-11-28T10:10:24.295Z,19.9
2022-11-28T10:11:26.136Z,20
2022-11-28T10:12:28.095Z,20.1
2022-11-28T10:14:07.529Z,20
2022-11-28T10:15:10.729Z,20.1
2022-11-28T10:16:12.675Z,20.1
2022-11-28T10:17:14.834Z,20
2022-11-28T10:18:16.869Z,20
2022-11-28T10:19:54.141Z,20
2022-11-28T10:20:57.039Z,20.1
2022-11-28T10:21:59.748Z,20.1
2022-11-28T10:23:01.592Z,20.1
2022-11-28T10:24:03.606Z,20
2022-11-28T10:25:05.645Z,19.8
2022-11-28T10:26:07.532Z,19.9
2022-11-28T10:27:09.364Z,19.8
2022-11-28T10:28:11.309Z,20
2022-11-28T10:29:13.157Z,20.1
2022-11-28T10:30:15.135Z,20.3
2022-11-28T10:31:17.073Z,20.1
2022-11-28T10:32:19.210Z,20.2
2022-11-28T10:33:22.098Z,20
2022-11-28T10:34:23.911Z,19.9
2022-11-28T10:35:28.980Z,19.8
2022-11-28T10:36:30.817Z,19.8
2022-11-28T10:37:32.554Z,19.8
2022-11-28T10:38:34.313Z,19.9
2022-11-28T10:39:36.161Z,19.9
2022-11-28T10:40:37.901Z,19.9
2022-11-28T10:41:39.522Z,20
2022-11-28T10:42:41.304Z,20
2022-11-28T10:43:43.261Z,19.9
2022-11-28T10:44:45.104Z,20
2022-11-28T10:45:47.255Z,20
2022-11-28T10:46:49.418Z,20
2022-11-28T10:47:51.274Z,19.9
2022-11-28T10:48:53.223Z,20
2022-11-28T10:49:55.038Z,19.8
2022-11-28T10:50:56.922Z,19.9
2022-11-28T10:51:58.843Z,19.8
2022-11-28T10:53:00.727Z,20
2022-11-28T10:54:02.538Z,20.2
2022-11-28T10:55:04.387Z,20
2022-11-28T10:56:11.813Z,20.1
2022-11-28T10:57:13.757Z,20
2022-11-28T10:58:15.573Z,20
2022-11-28T10:59:17.599Z,20
2022-11-28T11:00:19.510Z,19.9
2022-11-28T11:01:21.529Z,20
2022-11-28T11:02:23.612Z,20
2022-11-28T11:03:25.331Z,20
2022-11-28T11:04:27.255Z,20
2022-11-28T11:05:29.367Z,20
2022-11-28T11:07:09.002Z,20
2022-11-28T11:08:22.625Z,19.9
2022-11-28T11:09:24.652Z,20
2022-11-28T11:10:26.303Z,19.9
2022-11-28T11:11:28.198Z,19.9
2022-11-28T11:12:30.233Z,19.9
2022-11-28T11:13:31.880Z,19.9
2022-11-28T11:14:33.851Z,19.9
2022-11-28T11:15:36.010Z,19.9
2022-11-28T11:16:38.325Z,19.9
2022-11-28T11:17:40.405Z,19.9
2022-11-28T11:18:42.223Z,19.9
2022-11-28T11:19:44.738Z,19.9
2022-11-28T11:20:47.492Z,19.9
2022-11-28T11:21:49.182Z,19.9
2022-11-28T11:22:50.872Z,20
2022-11-28T11:23:52.536Z,20
2022-11-28T11:24:54.251Z,20
2022-11-28T11:25:55.975Z,20
2022-11-28T11:26:57.780Z,20
2022-11-28T11:27:59.527Z,20.1
2022-11-28T11:29:01.273Z,20
2022-11-28T11:30:03.222Z,20
2022-11-28T11:31:05.209Z,20
2022-11-28T11:32:07.458Z,20
2022-11-28T11:33:09.390Z,19.9
2022-11-28T11:34:11.236Z,19.9
2022-11-28T11:35:13.083Z,19.9
2022-11-28T11:36:14.831Z,19.9
2022-11-28T11:37:16.573Z,19.8
2022-11-28T11:38:18.308Z,19.8
2022-11-28T11:39:19.963Z,19.9
2022-11-28T11:40:21.615Z,20
2022-11-28T11:41:23.372Z,20
2022-11-28T11:42:25.078Z,20.1
2022-11-28T11:43:26.684Z,20.1
2022-11-28T11:44:28.292Z,20
2022-11-28T11:45:30.047Z,20
2022-11-28T11:46:32.033Z,20
2022-11-28T11:47:34.102Z,19.9
2022-11-28T11:48:35.712Z,20
2022-11-28T11:49:37.467Z,20
2022-11-28T11:50:39.298Z,20
2022-11-28T11:51:41.126Z,20
2022-11-28T11:52:42.893Z,20
2022-11-28T11:53:44.542Z,20
2022-11-28T11:54:46.183Z,20
2022-11-28T11:55:47.873Z,20
2022-11-28T11:57:11.490Z,20
2022-11-28T11:58:36.083Z,19.9
2022-11-28T11:59:37.832Z,19.8
2022-11-28T12:00:39.774Z,19.9
2022-11-28T12:01:41.810Z,19.9
2022-11-28T12:02:43.812Z,19.5
2022-11-28T12:03:46.162Z,19.7
2022-11-28T12:04:55.602Z,19.8
2022-11-28T12:06:15.450Z,19.9
2022-11-28T12:07:17.447Z,19.9
2022-11-28T12:08:19.453Z,20
2022-11-28T12:09:21.314Z,20
2022-11-28T12:10:23.252Z,20.1
2022-11-28T12:11:25.105Z,20.1
2022-11-28T12:12:26.958Z,20.1
2022-11-28T12:13:29.022Z,20.1
2022-11-28T12:14:30.834Z,20.2
2022-11-28T12:15:32.614Z,20.1
2022-11-28T12:16:34.764Z,20.1
2022-11-28T12:17:59.231Z,20.1
2022-11-28T12:19:01.097Z,20.1
2022-11-28T12:20:02.853Z,20.1
2022-11-28T12:21:04.804Z,20.1
2022-11-28T12:22:06.760Z,20.1
2022-11-28T12:23:17.328Z,20.1
2022-11-28T12:24:19.568Z,20.1
2022-11-28T12:25:21.430Z,20.1
2022-11-28T12:26:23.363Z,20.1
2022-11-28T12:27:25.197Z,20.1
2022-11-28T12:28:27.076Z,20
2022-11-28T12:29:28.917Z,20
2022-11-28T12:30:30.772Z,20
2022-11-28T12:31:32.751Z,20
2022-11-28T12:32:34.775Z,20
2022-11-28T12:33:36.674Z,20
2022-11-28T12:34:38.370Z,20.1
2022-11-28T12:35:40.117Z,20
2022-11-28T12:36:41.790Z,20.1
2022-11-28T12:38:11.625Z,20.1
2022-11-28T12:39:14.133Z,20
2022-11-28T12:40:15.883Z,20.1
2022-11-28T12:41:17.627Z,20.1
2022-11-28T12:42:19.376Z,20.1
2022-11-28T12:43:21.130Z,20.1
2022-11-28T12:44:22.847Z,20.1
2022-11-28T12:45:24.723Z,20
2022-11-28T12:46:26.577Z,20.1
2022-11-28T12:47:28.589Z,20.1
2022-11-28T12:48:30.475Z,20.1
2022-11-28T12:49:32.583Z,20.1
2022-11-28T12:50:34.276Z,20.1
2022-11-28T12:51:36.132Z,20.2
2022-11-28T12:52:37.981Z,20.2
2022-11-28T12:53:39.829Z,20.2
2022-11-28T12:54:41.687Z,20.3
2022-11-28T12:55:43.641Z,20.2
2022-11-28T12:56:45.687Z,20.3
2022-11-28T12:57:47.664Z,20.3
2022-11-28T12:58:49.506Z,20.2
2022-11-28T12:59:51.460Z,20.2
2022-11-28T13:00:53.396Z,20.1
2022-11-28T13:01:55.278Z,20.2
2022-11-28T13:02:57.458Z,20.2
2022-11-28T13:03:59.828Z,20.2
2022-11-28T13:05:01.785Z,20.2
2022-11-28T13:06:03.675Z,20.2
2022-11-28T13:07:05.515Z,20.2
2022-11-28T13:08:07.366Z,20.2
2022-11-28T13:09:09.068Z,20.2
2022-11-28T13:10:10.974Z,20.2
2022-11-28T13:11:12.719Z,20.3
2022-11-28T13:12:14.570Z,20.3
2022-11-28T13:13:16.390Z,20.3
2022-11-28T13:14:18.227Z,20.3
2022-11-28T13:15:19.915Z,20.3
2022-11-28T13:16:27.665Z,20.3
2022-11-28T13:17:29.660Z,20.2
2022-11-28T13:18:31.499Z,20.2
2022-11-28T13:19:33.461Z,20.2
2022-11-28T13:20:35.149Z,20.3
2022-11-28T13:21:37.032Z,20.2
2022-11-28T13:22:39.000Z,20.2
2022-11-28T13:23:40.856Z,20.2
2022-11-28T13:24:42.711Z,20.2
2022-11-28T13:25:44.449Z,20.2
2022-11-28T13:26:46.204Z,20.3
2022-11-28T13:27:48.084Z,20.4
2022-11-28T13:28:49.997Z,20.3
2022-11-28T13:29:51.847Z,20.2
2022-11-28T13:30:53.713Z,20.3
2022-11-28T13:32:02.501Z,20.2
2022-11-28T13:33:04.361Z,20.2
2022-11-28T13:34:05.970Z,20.2
2022-11-28T13:35:07.753Z,20.2
2022-11-28T13:36:09.893Z,20.2
2022-11-28T13:40:01.748Z,20
2022-11-28T13:41:03.542Z,20
2022-11-28T13:44:10.379Z,20
2022-11-28T13:45:12.079Z,20.1
2022-11-28T13:46:13.901Z,20.1
2022-11-28T13:47:16.029Z,20.1
2022-11-28T13:48:17.674Z,20.1
2022-11-28T13:49:21.686Z,20.1
2022-11-28T13:50:23.635Z,20.1
2022-11-28T13:51:32.220Z,20.1
2022-11-28T13:52:35.313Z,20.1
2022-11-28T13:53:37.163Z,20.2
2022-11-28T13:54:38.910Z,20.2
2022-11-28T13:55:40.732Z,20.2
2022-11-28T13:56:42.721Z,20.2
2022-11-28T13:57:44.554Z,20.2
2022-11-28T13:58:46.380Z,20.3
2022-11-28T13:59:48.115Z,20.3
2022-11-28T14:00:50.023Z,20.2
2022-11-28T14:01:52.008Z,20.2